createdAt,value
2023-05-05T00:00:34.749Z,43.10
2023-05-05T00:01:34.788Z,43.12
2023-05-05T00:02:34.929Z,43.11
2023-05-05T00:03:34.980Z,43.12
2023-05-05T00:04:34.872Z,43.12
2023-05-05T00:05:34.990Z,43.13
2023-05-05T00:06:35.027Z,43.14
2023-05-05T00:07:35.010Z,43.14
2023-05-05T00:08:35.058Z,43.17
2023-05-05T00:09:35.112Z,43.17
2023-05-05T00:10:35.150Z,43.17
2023-05-05T00:11:35.189Z,43.16
2023-05-05T00:12:35.240Z,43.18
2023-05-05T00:13:35.254Z,43.17
2023-05-05T00:14:35.321Z,43.19
2023-05-05T00:15:35.363Z,43.18
2023-05-05T00:16:35.411Z,43.20
2023-05-05T00:17:35.509Z,43.21
2023-05-05T00:18:35.487Z,43.18
2023-05-05T00:19:35.541Z,43.20
2023-05-05T00:20:35.560Z,43.19
2023-05-05T00:21:35.572Z,43.21
2023-05-05T00:22:35.660Z,43.21
2023-05-05T00:23:35.683Z,43.22
2023-05-05T00:24:35.725Z,43.23
2023-05-05T00:25:35.760Z,43.23
2023-05-05T00:26:35.784Z,43.25
2023-05-05T00:27:35.887Z,43.23
2023-05-05T00:28:35.894Z,43.22
2023-05-05T00:29:35.972Z,43.25
2023-05-05T00:30:36.015Z,43.23
2023-05-05T00:31:36.084Z,43.28
2023-05-05T00:32:36.110Z,43.24
2023-05-05T00:33:36.105Z,43.26
2023-05-05T00:34:36.168Z,43.25
2023-05-05T00:35:36.249Z,43.28
2023-05-05T00:36:36.290Z,43.29
2023-05-05T00:37:36.310Z,43.27
2023-05-05T00:38:36.356Z,43.28
2023-05-05T00:39:36.385Z,43.26
2023-05-05T00:40:36.459Z,43.30
2023-05-05T00:41:36.495Z,43.34
2023-05-05T00:42:36.532Z,43.28
2023-05-05T00:43:36.565Z,43.30
2023-05-05T00:44:36.595Z,43.33
2023-05-05T00:45:36.687Z,43.33
2023-05-05T00:46:36.740Z,43.32
2023-05-05T00:47:36.772Z,43.33
2023-05-05T00:48:36.794Z,43.33
2023-05-05T00:49:36.876Z,43.34
2023-05-05T00:50:36.888Z,43.34
2023-05-05T00:51:36.930Z,43.35
2023-05-05T00:52:36.987Z,43.35
2023-05-05T00:53:37.017Z,43.33
2023-05-05T00:54:37.108Z,43.34
2023-05-05T00:55:37.166Z,43.37
2023-05-05T00:56:37.180Z,43.38
2023-05-05T00:57:37.244Z,43.37
2023-05-05T00:58:37.273Z,43.36
2023-05-05T00:59:37.312Z,43.38
2023-05-05T01:00:37.420Z,43.37
2023-05-05T01:01:37.450Z,43.38
2023-05-05T01:02:37.524Z,43.37
2023-05-05T01:03:37.600Z,43.38
2023-05-05T01:04:37.559Z,43.38
2023-05-05T01:05:37.663Z,43.38
2023-05-05T01:06:37.678Z,43.42
2023-05-05T01:07:37.711Z,43.39
2023-05-05T01:08:37.769Z,43.42
2023-05-05T01:09:37.792Z,43.41
2023-05-05T01:10:37.856Z,43.38
2023-05-05T01:11:37.889Z,43.41
2023-05-05T01:12:38.871Z,43.42
2023-05-05T01:13:38.015Z,43.43
2023-05-05T01:14:38.027Z,43.43
2023-05-05T01:15:38.104Z,43.42
2023-05-05T01:16:38.154Z,43.45
2023-05-05T01:17:38.237Z,43.44
2023-05-05T01:18:38.255Z,43.44
2023-05-05T01:19:38.301Z,43.44
2023-05-05T01:20:38.324Z,43.45
2023-05-05T01:21:38.368Z,43.48
2023-05-05T01:22:38.403Z,43.46
2023-05-05T01:23:38.486Z,43.46
2023-05-05T01:24:38.552Z,43.48
2023-05-05T01:25:38.584Z,43.47
2023-05-05T01:26:38.625Z,43.48
2023-05-05T01:27:38.696Z,43.47
2023-05-05T01:28:38.711Z,43.51
2023-05-05T01:29:38.785Z,43.49
2023-05-05T01:30:38.816Z,43.48
2023-05-05T01:31:38.927Z,43.49
2023-05-05T01:32:38.923Z,43.49
2023-05-05T01:33:38.943Z,43.51
2023-05-05T01:34:38.998Z,43.52
2023-05-05T01:35:39.074Z,43.54
2023-05-05T01:36:39.112Z,43.53
2023-05-05T01:37:39.166Z,43.56
2023-05-05T01:38:39.294Z,43.52
2023-05-05T01:39:39.241Z,43.54
2023-05-05T01:40:39.329Z,43.54
2023-05-05T01:41:39.378Z,43.55
2023-05-05T01:42:39.418Z,43.54
2023-05-05T01:43:39.438Z,43.56
2023-05-05T01:44:39.509Z,43.55
2023-05-05T01:45:39.648Z,43.58
2023-05-05T01:46:39.624Z,43.56
2023-05-05T01:47:39.687Z,43.56
2023-05-05T01:48:42.246Z,43.57
2023-05-05T01:49:39.938Z,43.59
2023-05-05T01:50:40.033Z,43.57
2023-05-05T01:51:40.038Z,43.55
2023-05-05T01:52:40.137Z,43.54
2023-05-05T01:53:40.114Z,43.58
2023-05-05T01:54:40.156Z,43.57
2023-05-05T01:55:40.231Z,43.60
2023-05-05T01:56:40.262Z,43.62
2023-05-05T01:57:40.293Z,43.58
2023-05-05T01:58:40.368Z,43.61
2023-05-05T01:59:40.401Z,43.61
2023-05-05T02:00:40.473Z,43.63
2023-05-05T02:01:40.556Z,43.65
2023-05-05T02:02:40.582Z,43.63
2023-05-05T02:03:40.578Z,43.61
2023-05-05T02:04:40.650Z,43.65
2023-05-05T02:05:40.731Z,43.62
2023-05-05T02:06:40.739Z,43.61
2023-05-05T02:07:40.777Z,43.62
2023-05-05T02:08:40.819Z,43.63
2023-05-05T02:09:40.911Z,43.62
2023-05-05T02:10:41.021Z,43.64
2023-05-05T02:11:40.997Z,43.64
2023-05-05T02:12:41.076Z,43.68
2023-05-05T02:13:41.114Z,43.64
2023-05-05T02:14:41.110Z,43.65
2023-05-05T02:15:41.204Z,43.65
2023-05-05T02:16:41.307Z,43.66
2023-05-05T02:17:41.302Z,43.67
2023-05-05T02:18:41.318Z,43.68
2023-05-05T02:19:41.370Z,43.67
2023-05-05T02:20:41.431Z,43.70
2023-05-05T02:21:41.462Z,43.69
2023-05-05T02:22:41.538Z,43.69
2023-05-05T02:23:41.574Z,43.71
2023-05-05T02:24:41.608Z,43.67
2023-05-05T02:25:41.683Z,43.72
2023-05-05T02:26:41.734Z,43.71
2023-05-05T02:27:41.781Z,43.68
2023-05-05T02:28:41.818Z,43.70
2023-05-05T02:29:41.841Z,43.71
2023-05-05T02:30:41.933Z,43.75
2023-05-05T02:31:42.016Z,43.72
2023-05-05T02:32:41.986Z,43.72
2023-05-05T02:33:42.078Z,43.72
2023-05-05T02:34:42.119Z,43.74
2023-05-05T02:35:42.137Z,43.74
2023-05-05T02:36:42.201Z,43.73
2023-05-05T02:37:42.248Z,43.74
2023-05-05T02:38:42.329Z,43.77
2023-05-05T02:39:42.348Z,43.74
2023-05-05T02:40:42.434Z,43.73
2023-05-05T02:41:42.439Z,43.75
2023-05-05T02:42:42.529Z,43.74
2023-05-05T02:43:42.558Z,43.77
2023-05-05T02:44:42.622Z,43.77
2023-05-05T02:45:42.694Z,43.76
2023-05-05T02:46:42.759Z,43.76
2023-05-05T02:47:42.768Z,43.77
2023-05-05T02:48:42.771Z,43.77
2023-05-05T02:49:42.846Z,43.77
2023-05-05T02:50:42.893Z,43.77
2023-05-05T02:51:42.976Z,43.78
2023-05-05T02:52:43.043Z,43.80
2023-05-05T02:53:43.053Z,43.77
2023-05-05T02:54:43.098Z,43.77
2023-05-05T02:55:43.133Z,43.78
2023-05-05T02:56:43.227Z,43.80
2023-05-05T02:57:43.265Z,43.77
2023-05-05T02:58:43.335Z,43.75
2023-05-05T02:59:43.356Z,43.80
2023-05-05T03:00:43.424Z,43.80
2023-05-05T03:01:43.482Z,43.82
2023-05-05T03:02:43.571Z,43.82
2023-05-05T03:03:43.620Z,43.81
2023-05-05T03:04:43.599Z,43.81
2023-05-05T03:05:43.776Z,43.81
2023-05-05T03:06:43.748Z,43.82
2023-05-05T03:07:43.789Z,43.81
2023-05-05T03:08:43.827Z,43.84
2023-05-05T03:09:43.859Z,43.83
2023-05-05T03:10:43.954Z,43.83
2023-05-05T03:11:43.963Z,43.86
2023-05-05T03:12:44.059Z,43.80
2023-05-05T03:13:44.098Z,43.85
2023-05-05T03:14:44.153Z,43.86
2023-05-05T03:15:44.227Z,43.88
2023-05-05T03:16:44.407Z,43.86
2023-05-05T03:17:44.374Z,43.86
2023-05-05T03:18:44.349Z,43.85
2023-05-05T03:19:44.437Z,43.88
2023-05-05T03:20:44.473Z,43.87
2023-05-05T03:21:44.520Z,43.88
2023-05-05T03:22:44.580Z,43.87
2023-05-05T03:23:44.645Z,43.89
2023-05-05T03:24:44.664Z,43.89
2023-05-05T03:25:44.721Z,43.85
2023-05-05T03:26:44.788Z,43.85
2023-05-05T03:27:44.810Z,43.87
2023-05-05T03:28:44.911Z,43.88
2023-05-05T03:29:44.949Z,43.90
2023-05-05T03:30:44.996Z,43.89
2023-05-05T03:31:45.129Z,43.86
2023-05-05T03:32:45.145Z,43.87
2023-05-05T03:33:45.170Z,43.89
2023-05-05T03:34:45.207Z,43.87
2023-05-05T03:35:45.279Z,43.89
2023-05-05T03:36:45.327Z,43.89
2023-05-05T03:37:45.338Z,43.91
2023-05-05T03:38:45.414Z,43.90
2023-05-05T03:39:45.475Z,43.93
2023-05-05T03:40:45.531Z,43.90
2023-05-05T03:41:46.568Z,43.94
2023-05-05T03:42:45.537Z,43.94
2023-05-05T03:43:45.544Z,43.93
2023-05-05T03:44:45.499Z,43.93
2023-05-05T03:45:45.519Z,43.94
2023-05-05T03:46:45.518Z,43.95
2023-05-05T03:47:45.487Z,43.95
2023-05-05T03:48:45.472Z,43.94
2023-05-05T03:49:45.523Z,43.94
2023-05-05T03:50:45.553Z,43.93
2023-05-05T03:51:45.624Z,43.95
2023-05-05T03:52:45.711Z,43.98
2023-05-05T03:53:45.751Z,43.98
2023-05-05T03:54:45.794Z,43.95
2023-05-05T03:55:45.872Z,43.96
2023-05-05T03:56:45.931Z,43.96
2023-05-05T03:57:45.989Z,43.94
2023-05-05T03:58:46.076Z,43.96
2023-05-05T03:59:46.116Z,43.97
2023-05-05T04:00:46.124Z,43.98
2023-05-05T04:01:46.211Z,43.98
2023-05-05T04:02:46.397Z,43.98
2023-05-05T04:03:46.373Z,43.99
2023-05-05T04:04:46.368Z,43.97
2023-05-05T04:05:46.453Z,44.03
2023-05-05T04:06:46.501Z,43.99
2023-05-05T04:07:46.566Z,43.99
2023-05-05T04:08:46.683Z,43.98
2023-05-05T04:09:46.665Z,44.00
2023-05-05T04:10:46.764Z,43.99
2023-05-05T04:11:46.792Z,43.98
2023-05-05T04:12:46.863Z,44.00
2023-05-05T04:13:46.926Z,43.99
2023-05-05T04:14:46.951Z,44.01
2023-05-05T04:15:47.053Z,44.00
2023-05-05T04:16:47.069Z,44.01
2023-05-05T04:17:47.154Z,44.01
2023-05-05T04:18:47.185Z,44.02
2023-05-05T04:19:47.258Z,44.01
2023-05-05T04:20:47.289Z,44.02
2023-05-05T04:21:47.379Z,44.00
2023-05-05T04:22:47.446Z,44.02
2023-05-05T04:23:47.459Z,44.03
2023-05-05T04:24:47.541Z,44.00
2023-05-05T04:25:47.591Z,44.02
2023-05-05T04:26:47.657Z,44.04
2023-05-05T04:27:47.694Z,44.03
2023-05-05T04:28:47.772Z,44.00
2023-05-05T04:29:47.833Z,44.06
2023-05-05T04:30:47.883Z,44.03
2023-05-05T04:31:48.063Z,44.04
2023-05-05T04:32:48.000Z,44.04
2023-05-05T04:33:48.084Z,44.05
2023-05-05T04:34:48.093Z,44.05
2023-05-05T04:35:48.179Z,44.03
2023-05-05T04:36:48.239Z,44.05
2023-05-05T04:37:48.269Z,44.08
2023-05-05T04:38:48.368Z,44.08
2023-05-05T04:39:48.418Z,44.07
2023-05-05T04:40:48.470Z,44.07
2023-05-05T04:41:48.527Z,44.07
2023-05-05T04:42:48.580Z,44.07
2023-05-05T04:43:48.624Z,44.07
2023-05-05T04:44:48.676Z,44.09
2023-05-05T04:45:48.740Z,44.08
2023-05-05T04:46:48.862Z,44.07
2023-05-05T04:47:48.919Z,44.07
2023-05-05T04:48:48.912Z,44.05
2023-05-05T04:49:48.980Z,44.06
2023-05-05T04:50:49.036Z,44.09
2023-05-05T04:51:49.093Z,44.07
2023-05-05T04:52:51.310Z,44.07
2023-05-05T04:53:49.121Z,44.10
2023-05-05T04:54:49.120Z,44.09
2023-05-05T04:55:49.134Z,44.06
2023-05-05T04:56:49.116Z,44.07
2023-05-05T04:57:49.097Z,44.05
2023-05-05T04:58:49.091Z,44.11
2023-05-05T04:59:49.118Z,44.08
2023-05-05T05:00:49.077Z,44.07
2023-05-05T05:01:49.105Z,44.08
2023-05-05T05:02:49.164Z,44.09
2023-05-05T05:03:49.111Z,44.10
2023-05-05T05:04:49.054Z,44.09
2023-05-05T05:05:49.059Z,44.11
2023-05-05T05:06:49.086Z,44.11
2023-05-05T05:07:49.057Z,44.13
2023-05-05T05:08:49.040Z,44.14
2023-05-05T05:09:49.036Z,44.13
2023-05-05T05:10:49.009Z,44.12
2023-05-05T05:11:49.000Z,44.11
2023-05-05T05:12:49.015Z,44.11
2023-05-05T05:13:48.976Z,44.13
2023-05-05T05:14:48.961Z,44.11
2023-05-05T05:15:48.990Z,44.11
2023-05-05T05:16:49.053Z,44.10
2023-05-05T05:17:48.964Z,44.13
2023-05-05T05:18:48.925Z,44.14
2023-05-05T05:19:48.933Z,44.14
2023-05-05T05:20:48.966Z,44.12
2023-05-05T05:21:48.921Z,44.13
2023-05-05T05:22:48.916Z,44.13
2023-05-05T05:23:48.895Z,44.15
2023-05-05T05:24:48.932Z,44.15
2023-05-05T05:25:48.964Z,44.14
2023-05-05T05:26:49.041Z,44.18
2023-05-05T05:27:58.541Z,44.13
2023-05-05T05:28:50.064Z,44.13
2023-05-05T05:29:49.046Z,44.15
2023-05-05T05:30:49.082Z,44.13
2023-05-05T05:31:49.086Z,44.13
2023-05-05T05:32:49.095Z,44.16
2023-05-05T05:33:49.047Z,44.15
2023-05-05T05:34:49.022Z,44.16
2023-05-05T05:35:49.035Z,44.14
2023-05-05T05:36:49.082Z,44.17
2023-05-05T05:37:49.138Z,44.17
2023-05-05T05:38:49.202Z,44.18
2023-05-05T05:39:49.255Z,44.16
2023-05-05T05:40:49.308Z,44.16
2023-05-05T05:41:49.370Z,44.16
2023-05-05T05:42:49.440Z,44.16
2023-05-05T05:43:49.511Z,44.16
2023-05-05T05:44:49.563Z,44.18
2023-05-05T05:45:49.631Z,44.17
2023-05-05T05:46:49.813Z,44.19
2023-05-05T05:47:49.764Z,44.18
2023-05-05T05:48:49.805Z,44.20
2023-05-05T05:49:49.869Z,44.17
2023-05-05T05:50:49.928Z,44.20
2023-05-05T05:51:50.401Z,44.20
2023-05-05T05:52:50.091Z,44.22
2023-05-05T05:53:50.081Z,44.19
2023-05-05T05:54:50.181Z,44.18
2023-05-05T05:55:50.237Z,44.19
2023-05-05T05:56:50.282Z,44.19
2023-05-05T05:57:50.343Z,44.16
2023-05-05T05:58:50.383Z,44.18
2023-05-05T05:59:50.475Z,44.18
2023-05-05T06:00:50.557Z,44.18
2023-05-05T06:01:50.573Z,44.16
2023-05-05T06:02:50.679Z,44.14
2023-05-05T06:03:50.847Z,44.16
2023-05-05T06:04:50.754Z,44.16
2023-05-05T06:05:50.852Z,44.14
2023-05-05T06:06:50.981Z,44.12
2023-05-05T06:07:50.975Z,44.10
2023-05-05T06:08:51.020Z,44.07
2023-05-05T06:09:51.097Z,44.05
2023-05-05T06:10:51.125Z,44.04
2023-05-05T06:11:51.189Z,44.03
2023-05-05T06:12:51.298Z,44.03
2023-05-05T06:13:51.307Z,44.05
2023-05-05T06:14:51.360Z,44.05
2023-05-05T06:15:51.493Z,44.05
2023-05-05T06:16:51.683Z,44.01
2023-05-05T06:17:51.609Z,43.95
2023-05-05T06:18:51.643Z,43.98
2023-05-05T06:19:54.074Z,43.92
2023-05-05T06:20:51.663Z,43.91
2023-05-05T06:21:51.725Z,43.90
2023-05-05T06:22:51.668Z,43.92
2023-05-05T06:23:51.648Z,43.92
2023-05-05T06:24:51.655Z,43.94
2023-05-05T06:25:51.654Z,43.89
2023-05-05T06:26:51.935Z,43.90
2023-05-05T06:27:51.649Z,43.85
2023-05-05T06:28:51.647Z,43.82
2023-05-05T06:29:51.593Z,43.82
2023-05-05T06:30:51.623Z,43.85
2023-05-05T06:31:51.635Z,43.79
2023-05-05T06:32:51.608Z,43.78
2023-05-05T06:33:51.600Z,43.81
2023-05-05T06:34:51.581Z,43.79
2023-05-05T06:35:51.569Z,43.77
2023-05-05T06:36:51.990Z,43.78
2023-05-05T06:37:51.577Z,43.77
2023-05-05T06:38:51.560Z,43.72
2023-05-05T06:39:51.542Z,43.72
2023-05-05T06:40:51.547Z,43.68
2023-05-05T06:41:51.530Z,43.71
2023-05-05T06:42:51.547Z,43.72
2023-05-05T06:43:51.519Z,43.71
2023-05-05T06:44:51.510Z,43.67
2023-05-05T06:45:51.496Z,43.67
2023-05-05T06:46:51.963Z,43.66
2023-05-05T06:47:51.535Z,43.72
2023-05-05T06:48:51.483Z,43.67
2023-05-05T06:49:51.496Z,43.64
2023-05-05T06:50:51.520Z,43.60
2023-05-05T06:51:51.469Z,43.58
2023-05-05T06:52:51.448Z,43.74
2023-05-05T06:53:51.456Z,43.79
2023-05-05T06:54:51.456Z,43.78
2023-05-05T06:55:51.444Z,43.78
2023-05-05T06:56:51.522Z,43.78
2023-05-05T06:57:51.557Z,43.80
2023-05-05T06:58:51.728Z,43.80
2023-05-05T06:59:51.681Z,43.81
2023-05-05T07:00:51.747Z,43.83
2023-05-05T07:01:51.812Z,43.84
2023-05-05T07:02:51.916Z,43.85
2023-05-05T07:03:51.994Z,43.87
2023-05-05T07:04:52.004Z,43.89
2023-05-05T07:05:52.088Z,43.89
2023-05-05T07:06:52.436Z,43.88
2023-05-05T07:07:52.178Z,43.93
2023-05-05T07:08:52.241Z,43.94
2023-05-05T07:09:52.320Z,43.93
2023-05-05T07:10:52.343Z,43.95
2023-05-05T07:11:52.431Z,43.99
2023-05-05T07:12:52.594Z,43.99
2023-05-05T07:13:52.544Z,43.99
2023-05-05T07:14:52.826Z,44.00
2023-05-05T07:15:52.694Z,44.02
2023-05-05T07:16:52.814Z,44.02
2023-05-05T07:17:52.947Z,44.03
2023-05-05T07:18:53.017Z,44.02
2023-05-05T07:19:52.971Z,44.03
2023-05-05T07:20:52.996Z,44.16
2023-05-05T07:21:53.039Z,44.27
2023-05-05T07:22:53.089Z,44.56
2023-05-05T07:23:53.164Z,44.85
2023-05-05T07:24:53.244Z,44.91
2023-05-05T07:25:53.255Z,45.07
2023-05-05T07:26:53.336Z,45.13
2023-05-05T07:27:53.396Z,45.26
2023-05-05T07:28:53.415Z,45.25
2023-05-05T07:29:53.470Z,45.35
2023-05-05T07:30:53.584Z,45.42
2023-05-05T07:31:53.560Z,45.55
2023-05-05T07:32:53.635Z,45.67
2023-05-05T07:33:53.659Z,45.71
2023-05-05T07:34:53.640Z,45.82
2023-05-05T07:35:53.702Z,45.97
2023-05-05T07:36:53.696Z,46.10
2023-05-05T07:37:53.735Z,46.26
2023-05-05T07:38:53.758Z,46.35
2023-05-05T07:39:53.784Z,46.39
2023-05-05T07:40:53.803Z,46.61
2023-05-05T07:41:53.941Z,46.60
2023-05-05T07:42:53.888Z,46.75
2023-05-05T07:43:53.848Z,46.90
2023-05-05T07:44:53.878Z,46.83
2023-05-05T07:45:53.912Z,46.88
2023-05-05T07:46:54.041Z,46.89
2023-05-05T07:47:53.965Z,47.10
2023-05-05T07:48:54.025Z,47.04
2023-05-05T07:49:53.895Z,47.22
2023-05-05T07:50:53.896Z,47.27
2023-05-05T07:51:53.928Z,47.39
2023-05-05T07:52:59.373Z,47.49
2023-05-05T07:53:54.953Z,47.70
2023-05-05T07:54:54.065Z,47.86
2023-05-05T07:55:53.901Z,47.95
2023-05-05T07:56:53.883Z,47.97
2023-05-05T07:57:53.871Z,48.13
2023-05-05T07:58:53.845Z,48.21
2023-05-05T07:59:53.866Z,48.33
2023-05-05T08:00:53.853Z,48.51
2023-05-05T08:01:55.021Z,48.54
2023-05-05T08:02:54.189Z,48.53
2023-05-05T08:03:54.150Z,48.64
2023-05-05T08:04:53.836Z,48.76
2023-05-05T08:05:53.845Z,48.79
2023-05-05T08:06:53.814Z,48.95
2023-05-05T08:07:53.834Z,49.02
2023-05-05T08:08:53.833Z,49.29
2023-05-05T08:09:53.816Z,49.23
2023-05-05T08:10:53.781Z,49.38
2023-05-05T08:11:53.803Z,49.45
2023-05-05T08:12:53.774Z,49.51
2023-05-05T08:13:53.750Z,49.50
2023-05-05T08:14:53.775Z,49.65
2023-05-05T08:15:53.778Z,49.58
2023-05-05T08:16:53.731Z,49.56
2023-05-05T08:17:53.782Z,49.70
2023-05-05T08:18:53.889Z,49.70
2023-05-05T08:19:53.772Z,50.04
2023-05-05T08:20:53.716Z,49.92
2023-05-05T08:21:53.708Z,50.20
2023-05-05T08:22:53.725Z,50.62
2023-05-05T08:23:53.714Z,50.53
2023-05-05T08:24:53.715Z,50.42
2023-05-05T08:25:53.717Z,50.53
2023-05-05T08:26:53.736Z,50.13
2023-05-05T08:27:53.694Z,50.34
2023-05-05T08:28:53.671Z,50.06
2023-05-05T08:29:53.655Z,49.72
2023-05-05T08:30:53.657Z,49.82
2023-05-05T08:31:53.748Z,46.56
2023-05-05T08:32:53.687Z,47.95
2023-05-05T08:33:53.636Z,46.06
2023-05-05T08:34:53.679Z,43.72
2023-05-05T08:35:53.649Z,42.41
2023-05-05T08:36:53.641Z,42.37
2023-05-05T08:37:54.950Z,42.22
2023-05-05T08:38:53.652Z,41.93
2023-05-05T08:39:53.726Z,40.79
2023-05-05T08:40:53.812Z,40.38
2023-05-05T08:41:53.855Z,39.95
2023-05-05T08:42:53.891Z,39.35
2023-05-05T08:43:53.911Z,38.97
2023-05-05T08:44:53.910Z,38.76
2023-05-05T08:45:53.940Z,38.77
2023-05-05T08:46:53.949Z,38.71
2023-05-05T08:47:53.990Z,38.27
2023-05-05T08:48:53.921Z,38.16
2023-05-05T08:49:53.967Z,37.98
2023-05-05T08:50:54.005Z,38.48
2023-05-05T08:51:53.958Z,38.67
2023-05-05T08:52:54.002Z,38.47
2023-05-05T08:53:53.994Z,38.46
2023-05-05T08:54:54.010Z,39.00
2023-05-05T08:55:53.989Z,39.15
2023-05-05T08:56:53.983Z,38.50
2023-05-05T08:57:53.971Z,38.36
2023-05-05T08:58:53.973Z,38.65
2023-05-05T08:59:53.988Z,38.75
2023-05-05T09:00:54.031Z,38.60
2023-05-05T09:01:54.015Z,38.93
2023-05-05T09:02:54.095Z,39.15
2023-05-05T09:03:54.002Z,39.34
2023-05-05T09:04:54.001Z,39.33
2023-05-05T09:05:54.011Z,39.53
2023-05-05T09:06:54.267Z,39.27
2023-05-05T09:07:54.491Z,38.70
2023-05-05T09:08:54.117Z,38.64
2023-05-05T09:09:54.129Z,38.63
2023-05-05T09:10:54.140Z,38.67
2023-05-05T09:11:54.104Z,38.65
2023-05-05T09:12:54.132Z,38.82
2023-05-05T09:13:54.141Z,39.00
2023-05-05T09:14:54.145Z,38.94
2023-05-05T09:15:54.183Z,39.06
2023-05-05T09:16:54.241Z,38.93
2023-05-05T09:17:54.282Z,38.76
2023-05-05T09:18:54.319Z,38.45
2023-05-05T09:19:54.326Z,38.76
2023-05-05T09:20:54.406Z,38.82
2023-05-05T09:21:54.429Z,38.87
2023-05-05T09:22:54.525Z,38.96
2023-05-05T09:23:55.079Z,39.01
2023-05-05T09:24:54.552Z,38.90
2023-05-05T09:25:54.638Z,38.97
2023-05-05T09:26:54.648Z,39.12
2023-05-05T09:27:55.045Z,39.32
2023-05-05T09:28:54.799Z,39.36
2023-05-05T09:29:54.858Z,39.49
2023-05-05T09:30:54.961Z,39.50
2023-05-05T09:31:55.021Z,39.50
2023-05-05T09:32:55.106Z,39.52
2023-05-05T09:33:55.129Z,39.44
2023-05-05T09:34:55.178Z,39.47
2023-05-05T09:35:55.240Z,39.31
2023-05-05T09:36:55.314Z,39.27
2023-05-05T09:37:55.420Z,39.02
2023-05-05T09:38:56.351Z,38.80
2023-05-05T09:39:55.490Z,38.98
2023-05-05T09:40:55.546Z,39.02
2023-05-05T09:41:55.614Z,38.94
2023-05-05T09:42:55.995Z,38.88
2023-05-05T09:43:55.689Z,39.19
2023-05-05T09:44:57.856Z,39.41
2023-05-05T09:45:55.774Z,39.12
2023-05-05T09:46:55.732Z,39.18
2023-05-05T09:47:59.536Z,39.40
2023-05-05T09:48:55.752Z,39.88
2023-05-05T09:49:55.712Z,40.22
2023-05-05T09:50:55.753Z,40.56
2023-05-05T09:51:55.723Z,40.76
2023-05-05T09:52:55.701Z,40.95
2023-05-05T09:53:55.724Z,41.11
2023-05-05T09:54:55.767Z,41.34
2023-05-05T09:55:55.674Z,41.51
2023-05-05T09:56:55.672Z,41.68
2023-05-05T09:57:56.096Z,41.82
2023-05-05T09:58:57.081Z,41.99
2023-05-05T09:59:56.505Z,42.16
2023-05-05T10:00:55.635Z,42.30
2023-05-05T10:01:55.665Z,42.44
2023-05-05T10:02:55.667Z,42.50
2023-05-05T10:03:55.619Z,42.67
2023-05-05T10:04:55.647Z,42.84
2023-05-05T10:05:55.697Z,42.86
2023-05-05T10:06:55.624Z,42.94
2023-05-05T10:07:55.582Z,42.88
2023-05-05T10:08:55.598Z,42.83
2023-05-05T10:09:55.555Z,42.85
2023-05-05T10:10:55.661Z,42.86
2023-05-05T10:11:55.567Z,42.89
2023-05-05T10:12:55.605Z,42.98
2023-05-05T10:13:55.561Z,43.01
2023-05-05T10:14:55.568Z,43.04
2023-05-05T10:15:55.587Z,43.12
2023-05-05T10:16:55.534Z,43.18
2023-05-05T10:18:06.192Z,43.21
2023-05-05T10:18:56.530Z,43.26
2023-05-05T10:19:55.518Z,43.36
2023-05-05T10:20:55.483Z,43.37
2023-05-05T10:21:55.490Z,43.44
2023-05-05T10:22:55.488Z,43.48
2023-05-05T10:23:55.465Z,43.51
2023-05-05T10:24:55.462Z,43.55
2023-05-05T10:25:55.483Z,43.56
2023-05-05T10:26:55.537Z,43.57
2023-05-05T10:27:55.457Z,43.58
2023-05-05T10:28:55.442Z,43.60
2023-05-05T10:29:55.485Z,43.80
2023-05-05T10:30:55.482Z,44.34
2023-05-05T10:31:55.573Z,44.70
2023-05-05T10:33:07.981Z,45.04
2023-05-05T10:33:56.649Z,45.27
2023-05-05T10:34:55.535Z,45.34
2023-05-05T10:35:55.582Z,45.36
2023-05-05T10:36:55.539Z,45.59
2023-05-05T10:37:55.523Z,45.48
2023-05-05T10:38:55.536Z,45.48
2023-05-05T10:39:55.532Z,45.77
2023-05-05T10:40:55.501Z,46.01
2023-05-05T10:41:55.506Z,46.39
2023-05-05T10:42:55.648Z,46.58
2023-05-05T10:43:55.501Z,46.86
2023-05-05T10:44:55.533Z,47.20
2023-05-05T10:45:55.637Z,47.27
2023-05-05T10:46:55.470Z,47.49
2023-05-05T10:47:55.483Z,47.42
2023-05-05T10:48:55.493Z,47.57
2023-05-05T10:49:55.456Z,47.57
2023-05-05T10:50:55.412Z,47.48
2023-05-05T10:51:55.424Z,47.60
2023-05-05T10:52:55.423Z,47.71
2023-05-05T10:53:55.418Z,47.92
2023-05-05T10:54:55.406Z,47.97
2023-05-05T10:55:55.381Z,48.27
2023-05-05T10:56:55.379Z,48.38
2023-05-05T10:57:55.395Z,48.57
2023-05-05T10:59:00.009Z,48.71
2023-05-05T10:59:56.414Z,48.90
2023-05-05T11:00:55.420Z,49.05
2023-05-05T11:01:55.537Z,49.06
2023-05-05T11:02:55.379Z,49.20
2023-05-05T11:03:55.358Z,49.46
2023-05-05T11:04:55.325Z,49.50
2023-05-05T11:05:55.325Z,49.61
2023-05-05T11:06:55.347Z,49.64
2023-05-05T11:07:55.333Z,49.94
2023-05-05T11:08:55.314Z,49.93
2023-05-05T11:09:55.301Z,50.10
2023-05-05T11:10:55.312Z,49.88
2023-05-05T11:11:55.281Z,50.10
2023-05-05T11:12:55.340Z,50.10
2023-05-05T11:13:55.314Z,50.09
2023-05-05T11:14:55.393Z,50.10
2023-05-05T11:15:55.297Z,50.35
2023-05-05T11:16:55.325Z,50.50
2023-05-05T11:17:55.410Z,50.64
2023-05-05T11:18:55.344Z,50.66
2023-05-05T11:19:55.380Z,50.75
2023-05-05T11:20:55.415Z,50.82
2023-05-05T11:21:55.454Z,50.94
2023-05-05T11:22:55.493Z,51.05
2023-05-05T11:23:55.486Z,51.10
2023-05-05T11:24:55.508Z,51.22
2023-05-05T11:25:55.506Z,51.32
2023-05-05T11:26:55.578Z,51.47
2023-05-05T11:27:56.049Z,51.51
2023-05-05T11:28:55.644Z,51.51
2023-05-05T11:29:55.647Z,51.54
2023-05-05T11:30:56.147Z,51.56
2023-05-05T11:31:55.749Z,51.62
2023-05-05T11:32:55.825Z,51.53
2023-05-05T11:33:56.060Z,51.42
2023-05-05T11:34:55.793Z,51.51
2023-05-05T11:35:55.831Z,51.62
2023-05-05T11:36:55.820Z,51.53
2023-05-05T11:37:55.858Z,51.50
2023-05-05T11:38:55.931Z,51.74
2023-05-05T11:39:55.888Z,51.60
2023-05-05T11:40:55.898Z,51.63
2023-05-05T11:41:55.898Z,51.67
2023-05-05T11:42:55.922Z,51.59
2023-05-05T11:43:55.908Z,51.64
2023-05-05T11:44:55.942Z,51.52
2023-05-05T11:45:55.977Z,51.39
2023-05-05T11:46:56.038Z,51.33
2023-05-05T11:47:56.040Z,51.31
2023-05-05T11:48:56.010Z,51.22
2023-05-05T11:49:56.008Z,51.16
2023-05-05T11:50:56.039Z,51.27
2023-05-05T11:51:56.039Z,51.15
2023-05-05T11:52:56.049Z,51.09
2023-05-05T11:53:58.466Z,51.04
2023-05-05T11:54:56.054Z,50.96
2023-05-05T11:55:56.020Z,50.95
2023-05-05T11:56:56.018Z,50.92
2023-05-05T11:57:55.992Z,50.87
2023-05-05T11:58:56.009Z,50.84
2023-05-05T11:59:56.008Z,50.85
2023-05-05T12:00:56.010Z,50.82
2023-05-05T12:01:55.970Z,50.77
2023-05-05T12:02:56.137Z,50.74
2023-05-05T12:03:56.124Z,50.68
2023-05-05T12:04:56.133Z,50.65
2023-05-05T12:05:55.960Z,50.67
2023-05-05T12:06:55.938Z,50.61
2023-05-05T12:07:55.951Z,50.63
2023-05-05T12:08:55.915Z,50.56
2023-05-05T12:09:55.924Z,50.54
2023-05-05T12:10:55.898Z,50.52
2023-05-05T12:11:55.921Z,50.51
2023-05-05T12:12:56.121Z,50.50
2023-05-05T12:13:55.919Z,50.49
2023-05-05T12:14:55.892Z,50.49
2023-05-05T12:15:55.926Z,50.49
2023-05-05T12:16:55.916Z,50.46
2023-05-05T12:17:55.889Z,50.46
2023-05-05T12:18:55.928Z,50.46
2023-05-05T12:19:55.852Z,50.38
2023-05-05T12:20:55.866Z,50.40
2023-05-05T12:21:55.843Z,50.36
2023-05-05T12:22:55.855Z,50.43
2023-05-05T12:23:55.863Z,50.35
2023-05-05T12:24:55.806Z,50.39
2023-05-05T12:25:56.579Z,50.35
2023-05-05T12:26:55.793Z,50.32
2023-05-05T12:27:55.818Z,50.27
2023-05-05T12:28:55.804Z,50.27
2023-05-05T12:29:55.806Z,50.28
2023-05-05T12:30:55.857Z,50.24
2023-05-05T12:31:55.833Z,50.22
2023-05-05T12:32:55.817Z,50.20
2023-05-05T12:33:55.766Z,50.18
2023-05-05T12:34:55.842Z,50.18
2023-05-05T12:35:55.748Z,50.15
2023-05-05T12:36:55.761Z,50.17
2023-05-05T12:37:55.753Z,50.16
2023-05-05T12:38:55.734Z,50.11
2023-05-05T12:39:55.737Z,50.14
2023-05-05T12:40:55.722Z,50.11
2023-05-05T12:41:55.726Z,50.10
2023-05-05T12:42:55.709Z,50.09
2023-05-05T12:43:55.725Z,50.10
2023-05-05T12:44:55.735Z,50.11
2023-05-05T12:45:55.716Z,50.12
2023-05-05T12:46:55.703Z,50.08
2023-05-05T12:47:55.671Z,50.06
2023-05-05T12:48:55.691Z,50.08
2023-05-05T12:49:55.663Z,50.04
2023-05-05T12:50:56.001Z,50.03
2023-05-05T12:51:55.654Z,50.02
2023-05-05T12:52:55.657Z,49.99